createdAt,value
2018-04-08T00:00:27.772Z,59.50
2018-04-08T00:02:55.438Z,59.50
2018-04-08T00:05:25.941Z,59.50
2018-04-08T00:08:17.018Z,59.50
2018-04-08T00:10:44.619Z,59.50
2018-04-08T00:13:12.274Z,59.50
2018-04-08T00:15:39.938Z,59.50
2018-04-08T00:18:07.449Z,59.50
2018-04-08T00:20:34.948Z,59.50
2018-04-08T00:23:02.577Z,59.50
2018-04-08T00:25:30.380Z,59.50
2018-04-08T00:27:58.043Z,59.40
2018-04-08T00:30:25.717Z,59.50
2018-04-08T00:32:53.214Z,59.50
2018-04-08T00:35:20.842Z,59.40
2018-04-08T00:37:48.749Z,59.40
2018-04-08T00:40:16.538Z,59.40
2018-04-08T00:42:44.042Z,59.50
2018-04-08T00:45:11.591Z,59.40
2018-04-08T00:47:39.151Z,59.50
2018-04-08T00:50:06.770Z,59.40
2018-04-08T00:52:34.497Z,59.40
2018-04-08T00:55:02.116Z,59.40
2018-04-08T00:57:29.782Z,59.40
2018-04-08T00:59:57.322Z,59.40
2018-04-08T01:02:24.889Z,59.40
2018-04-08T01:04:52.441Z,59.40
2018-04-08T01:07:20.202Z,59.40
2018-04-08T01:09:47.849Z,59.40
2018-04-08T01:12:25.629Z,59.40
2018-04-08T01:14:53.209Z,59.40
2018-04-08T01:17:20.717Z,59.40
2018-04-08T01:19:48.334Z,59.40
2018-04-08T01:22:15.843Z,59.40
2018-04-08T01:24:43.396Z,59.30
2018-04-08T01:27:10.898Z,59.30
2018-04-08T01:29:39.002Z,59.40
2018-04-08T01:32:06.637Z,59.40
2018-04-08T01:34:34.326Z,59.30
2018-04-08T01:37:01.964Z,59.40
2018-04-08T01:39:29.501Z,59.30
2018-04-08T01:41:57.446Z,59.30
2018-04-08T01:44:25.006Z,59.30
2018-04-08T01:46:52.507Z,59.30
2018-04-08T01:49:20.190Z,59.30
2018-04-08T01:51:47.893Z,59.30
2018-04-08T01:54:15.400Z,59.30
2018-04-08T01:56:43.017Z,59.30
2018-04-08T01:59:10.999Z,59.30
2018-04-08T02:01:38.980Z,59.20
2018-04-08T02:04:06.610Z,59.20
2018-04-08T02:06:34.298Z,59.30
2018-04-08T02:09:01.805Z,59.20
2018-04-08T02:11:29.402Z,59.20
2018-04-08T02:13:57.270Z,59.20
2018-04-08T02:16:25.241Z,59.20
2018-04-08T02:18:53.183Z,59.20
2018-04-08T02:21:20.839Z,59.20
2018-04-08T02:23:48.415Z,59.20
2018-04-08T02:26:15.929Z,59.20
2018-04-08T02:28:43.433Z,59.20
2018-04-08T02:31:10.937Z,59.20
2018-04-08T02:33:38.651Z,59.20
2018-04-08T02:36:08.163Z,59.20
2018-04-08T02:38:35.856Z,59.10
2018-04-08T02:41:03.517Z,59.10
2018-04-08T02:43:31.157Z,59.10
2018-04-08T02:45:59.207Z,59.10
2018-04-08T02:48:26.799Z,59.10
2018-04-08T02:50:54.743Z,59.10
2018-04-08T02:53:22.263Z,59.10
2018-04-08T02:55:49.819Z,59.10
2018-04-08T02:58:17.749Z,59.10
2018-04-08T03:00:45.998Z,59.10
2018-04-08T03:03:13.655Z,59.10
2018-04-08T03:05:41.207Z,59.10
2018-04-08T03:08:14.304Z,59.10
2018-04-08T03:10:41.811Z,59.10
2018-04-08T03:13:09.422Z,59.10
2018-04-08T03:15:36.998Z,59.10
2018-04-08T03:18:04.958Z,59.10
2018-04-08T03:20:32.606Z,59.10
2018-04-08T03:23:00.106Z,59.10
2018-04-08T03:25:27.643Z,59.10
2018-04-08T03:27:55.587Z,59.00
2018-04-08T03:30:23.323Z,59.00
2018-04-08T03:32:51.011Z,59.10
2018-04-08T03:35:18.771Z,59.00
2018-04-08T03:37:46.433Z,59.10
2018-04-08T03:40:14.102Z,59.00
2018-04-08T03:42:41.606Z,59.00
2018-04-08T03:45:09.278Z,59.00
2018-04-08T03:47:36.870Z,59.00
2018-04-08T03:50:04.404Z,59.00
2018-04-08T03:52:32.194Z,59.00
2018-04-08T03:54:59.693Z,59.00
2018-04-08T03:57:27.307Z,59.00
2018-04-08T03:59:54.813Z,59.00
2018-04-08T04:02:22.319Z,59.00
2018-04-08T04:04:49.889Z,59.00
2018-04-08T04:07:17.491Z,59.00
2018-04-08T04:09:44.989Z,59.00
2018-04-08T04:12:12.492Z,59.00
2018-04-08T04:14:40.157Z,59.00
2018-04-08T04:17:07.785Z,58.90
2018-04-08T04:19:46.990Z,58.90
2018-04-08T04:22:26.470Z,58.90
2018-04-08T04:25:01.455Z,59.00
2018-04-08T04:27:29.147Z,58.90
2018-04-08T04:29:56.758Z,58.90
2018-04-08T04:32:24.287Z,59.00
2018-04-08T04:34:51.920Z,58.90
2018-04-08T04:37:19.584Z,58.90
2018-04-08T04:39:47.208Z,58.90
2018-04-08T04:42:14.710Z,59.00
2018-04-08T04:44:42.627Z,58.90
2018-04-08T04:47:10.237Z,58.90
2018-04-08T04:49:37.894Z,58.90
2018-04-08T04:52:05.550Z,58.90
2018-04-08T04:54:33.057Z,58.90
2018-04-08T04:57:00.662Z,58.90
2018-04-08T04:59:28.338Z,58.90
2018-04-08T05:01:55.886Z,58.90
2018-04-08T05:04:23.512Z,58.90
2018-04-08T05:06:51.111Z,58.90
2018-04-08T05:09:18.615Z,58.90
2018-04-08T05:11:46.114Z,58.90
2018-04-08T05:14:13.673Z,58.90
2018-04-08T05:16:41.177Z,58.90
2018-04-08T05:19:08.781Z,58.90
2018-04-08T05:21:36.277Z,58.70
2018-04-08T05:24:04.218Z,58.90
2018-04-08T05:26:32.181Z,58.90
2018-04-08T05:28:59.698Z,58.90
2018-04-08T05:31:27.301Z,58.90
2018-04-08T05:33:54.798Z,58.70
2018-04-08T05:36:22.418Z,58.70
2018-04-08T05:38:49.971Z,58.70
2018-04-08T05:41:17.539Z,58.70
2018-04-08T05:43:45.039Z,58.70
2018-04-08T05:46:12.655Z,58.70
2018-04-08T05:48:40.150Z,58.90
2018-04-08T05:51:07.771Z,58.70
2018-04-08T05:53:35.271Z,58.70
2018-04-08T05:56:02.885Z,58.70
2018-04-08T05:58:30.388Z,58.90
2018-04-08T06:00:58.003Z,58.90
2018-04-08T06:03:25.672Z,58.90
2018-04-08T06:05:56.062Z,58.70
2018-04-08T06:08:23.853Z,58.90
2018-04-08T06:10:51.519Z,58.70
2018-04-08T06:13:19.173Z,58.90
2018-04-08T06:15:46.833Z,58.70
2018-04-08T06:18:14.502Z,58.40
2018-04-08T06:20:43.004Z,58.20
2018-04-08T06:23:10.682Z,57.90
2018-04-08T06:25:38.222Z,57.60
2018-04-08T06:28:06.136Z,56.80
2018-04-08T06:30:33.671Z,56.80
2018-04-08T06:33:01.285Z,56.30
2018-04-08T06:35:28.793Z,56.10
2018-04-08T06:37:56.687Z,56.00
2018-04-08T06:40:24.259Z,55.50
2018-04-08T06:42:51.921Z,55.00
2018-04-08T06:45:19.582Z,55.10
2018-04-08T06:47:47.125Z,55.00
2018-04-08T06:50:14.689Z,54.90
2018-04-08T06:52:42.194Z,54.50
2018-04-08T06:55:09.809Z,54.20
2018-04-08T06:57:37.470Z,54.30
2018-04-08T07:00:04.971Z,54.30
2018-04-08T07:02:32.591Z,54.10
2018-04-08T07:05:00.099Z,53.70
2018-04-08T07:07:27.604Z,53.80
2018-04-08T07:09:55.110Z,53.80
2018-04-08T07:12:22.624Z,53.40
2018-04-08T07:14:50.306Z,53.30
2018-04-08T07:17:17.834Z,53.50
2018-04-08T07:19:45.598Z,53.50
2018-04-08T07:22:14.278Z,53.40
2018-04-08T07:24:41.965Z,53.30
2018-04-08T07:27:09.507Z,53.20
2018-04-08T07:29:37.064Z,53.30
2018-04-08T07:32:04.576Z,53.20
2018-04-08T07:34:32.120Z,53.10
2018-04-08T07:36:59.654Z,53.10
2018-04-08T07:39:27.297Z,53.20
2018-04-08T07:41:54.804Z,53.10
2018-04-08T07:44:31.774Z,53.00
2018-04-08T07:46:59.326Z,53.00
2018-04-08T07:49:32.282Z,53.00
2018-04-08T07:51:59.967Z,53.00
2018-04-08T07:54:27.598Z,52.90
2018-04-08T07:56:55.467Z,52.80
2018-04-08T07:59:22.978Z,52.90
2018-04-08T08:01:50.600Z,52.90
2018-04-08T08:04:18.247Z,52.80
2018-04-08T08:06:45.947Z,52.80
2018-04-08T08:09:13.591Z,53.00
2018-04-08T08:11:41.606Z,52.70
2018-04-08T08:14:09.318Z,52.80
2018-04-08T08:16:36.831Z,52.70
2018-04-08T08:19:04.463Z,52.90
2018-04-08T08:21:31.967Z,52.80
2018-04-08T08:23:59.530Z,52.60
2018-04-08T08:26:27.044Z,52.50
2018-04-08T08:28:54.657Z,52.60
2018-04-08T08:31:22.318Z,52.50
2018-04-08T08:33:49.858Z,52.40
2018-04-08T08:36:17.450Z,52.30
2018-04-08T08:38:45.082Z,52.40
2018-04-08T08:41:12.630Z,52.40
2018-04-08T08:43:40.264Z,52.30
2018-04-08T08:46:07.866Z,52.40
2018-04-08T08:48:35.370Z,52.50
2018-04-08T08:51:03.051Z,52.40
2018-04-08T08:53:30.647Z,52.30
2018-04-08T08:55:58.171Z,52.30
2018-04-08T08:58:25.767Z,52.20
2018-04-08T09:00:53.290Z,52.40
2018-04-08T09:03:20.878Z,52.20
2018-04-08T09:05:48.446Z,52.30
2018-04-08T09:08:15.995Z,52.30
2018-04-08T09:10:43.708Z,52.20
2018-04-08T09:13:11.219Z,52.10
2018-04-08T09:15:38.719Z,52.20
2018-04-08T09:18:06.265Z,52.20
2018-04-08T09:20:50.736Z,52.20
2018-04-08T09:23:35.974Z,52.20
2018-04-08T09:26:03.651Z,52.30
2018-04-08T09:28:31.559Z,52.30
2018-04-08T09:30:59.201Z,52.30
2018-04-08T09:33:26.718Z,52.30
2018-04-08T09:35:54.614Z,52.40
2018-04-08T09:38:22.334Z,52.40
2018-04-08T09:40:49.899Z,52.40
2018-04-08T09:43:17.952Z,52.30
2018-04-08T09:45:45.786Z,52.30
2018-04-08T09:48:13.600Z,52.50
2018-04-08T09:50:44.830Z,52.30
2018-04-08T09:53:12.347Z,52.40
2018-04-08T09:55:40.126Z,52.40
2018-04-08T09:58:14.510Z,52.50
2018-04-08T10:00:58.819Z,52.40
2018-04-08T10:03:27.193Z,52.40
2018-04-08T10:05:54.714Z,52.30
2018-04-08T10:08:22.233Z,52.50
2018-04-08T10:10:50.191Z,52.40
2018-04-08T10:13:17.768Z,52.40
2018-04-08T10:15:45.674Z,52.50
2018-04-08T10:18:13.207Z,52.50
2018-04-08T10:20:41.044Z,52.50
2018-04-08T10:23:09.133Z,52.50
2018-04-08T10:25:36.630Z,52.50
2018-04-08T10:28:05.036Z,52.40
2018-04-08T10:30:32.703Z,52.60
2018-04-08T10:33:00.354Z,52.70
2018-04-08T10:35:28.087Z,52.50
2018-04-08T10:37:55.931Z,52.40
2018-04-08T10:40:23.466Z,52.70
2018-04-08T10:42:51.616Z,52.70
2018-04-08T10:45:19.278Z,52.70
2018-04-08T10:47:46.935Z,52.50
2018-04-08T10:50:14.506Z,52.70
2018-04-08T10:52:42.059Z,52.70
2018-04-08T10:55:09.715Z,52.60
2018-04-08T10:57:37.211Z,52.50
2018-04-08T11:00:04.847Z,52.70
2018-04-08T11:02:32.350Z,52.80
2018-04-08T11:05:00.013Z,52.90
2018-04-08T11:07:27.609Z,52.80
2018-04-08T11:09:55.277Z,52.80
2018-04-08T11:12:22.788Z,52.90
2018-04-08T11:14:50.301Z,52.80
2018-04-08T11:17:17.806Z,52.60
2018-04-08T11:19:45.312Z,52.60
2018-04-08T11:22:12.824Z,52.70
2018-04-08T11:24:40.422Z,52.70
2018-04-08T11:27:07.926Z,52.50
2018-04-08T11:29:35.435Z,52.50
2018-04-08T11:32:03.206Z,52.80
2018-04-08T11:34:30.876Z,52.80
2018-04-08T11:36:58.518Z,52.70
2018-04-08T11:39:26.029Z,52.60
2018-04-08T11:41:53.839Z,53.00
2018-04-08T11:44:21.369Z,52.90
2018-04-08T11:46:48.986Z,53.00
2018-04-08T11:49:16.926Z,53.10
2018-04-08T11:51:44.474Z,53.10
2018-04-08T11:54:11.979Z,53.20
2018-04-08T11:56:39.499Z,53.10
2018-04-08T11:59:07.053Z,53.00
2018-04-08T12:01:34.610Z,52.90
2018-04-08T12:04:02.151Z,53.10
2018-04-08T12:06:29.804Z,53.20
2018-04-08T12:08:57.312Z,53.10
2018-04-08T12:11:24.954Z,53.10
2018-04-08T12:13:52.489Z,53.20
2018-04-08T12:16:19.997Z,53.40
2018-04-08T12:18:48.167Z,53.20
2018-04-08T12:21:15.820Z,53.20
2018-04-08T12:23:43.462Z,53.30
2018-04-08T12:26:21.802Z,53.60
2018-04-08T12:28:49.303Z,53.60
2018-04-08T12:31:20.394Z,53.30
2018-04-08T12:33:50.561Z,53.30
2018-04-08T12:36:18.358Z,53.50
2018-04-08T12:38:45.881Z,53.50
2018-04-08T12:41:13.468Z,53.50
2018-04-08T12:43:40.988Z,53.50
2018-04-08T12:46:08.598Z,53.70
2018-04-08T12:48:36.107Z,53.80
2018-04-08T12:51:03.753Z,53.70
2018-04-08T12:53:31.382Z,53.50
2018-04-08T12:56:02.562Z,53.80
2018-04-08T12:58:30.369Z,54.00
2018-04-08T13:00:57.938Z,53.90
2018-04-08T13:03:25.504Z,53.80
2018-04-08T13:05:53.389Z,53.80
2018-04-08T13:08:21.434Z,54.00
2018-04-08T13:10:48.967Z,54.00
2018-04-08T13:13:16.501Z,53.70
2018-04-08T13:15:45.154Z,53.50
2018-04-08T13:18:13.130Z,53.90
2018-04-08T13:20:41.069Z,53.90
2018-04-08T13:23:08.840Z,53.50
2018-04-08T13:25:36.491Z,53.40
2018-04-08T13:28:04.056Z,53.80
2018-04-08T13:30:31.661Z,53.80
2018-04-08T13:32:59.164Z,53.60
2018-04-08T13:35:26.727Z,53.50
2018-04-08T13:37:54.426Z,53.40
2018-04-08T13:40:22.263Z,53.90
2018-04-08T13:42:50.182Z,53.50
2018-04-08T13:45:17.979Z,53.50
2018-04-08T13:47:45.666Z,53.50
2018-04-08T13:50:13.646Z,54.30
2018-04-08T13:52:41.374Z,54.30
2018-04-08T13:55:08.963Z,54.10
2018-04-08T13:57:36.890Z,53.90
2018-04-08T14:00:04.584Z,53.90
2018-04-08T14:02:32.196Z,54.30
2018-04-08T14:04:59.877Z,54.10
2018-04-08T14:07:32.454Z,54.10
2018-04-08T14:10:00.014Z,53.90
2018-04-08T14:12:27.589Z,53.80
2018-04-08T14:14:55.613Z,53.70
2018-04-08T14:17:23.307Z,53.70
2018-04-08T14:19:50.807Z,53.60
2018-04-08T14:22:18.362Z,53.60
2018-04-08T14:24:46.084Z,53.80
2018-04-08T14:27:13.605Z,53.70
2018-04-08T14:29:41.208Z,53.40
2018-04-08T14:32:14.599Z,53.40
2018-04-08T14:34:42.287Z,53.50
2018-04-08T14:37:09.794Z,53.80
2018-04-08T14:39:37.392Z,53.70
2018-04-08T14:42:05.446Z,53.80
2018-04-08T14:44:33.127Z,53.80
2018-04-08T14:47:00.770Z,54.20
2018-04-08T14:49:28.274Z,53.80
2018-04-08T14:51:55.851Z,53.40
2018-04-08T14:54:23.549Z,53.70
2018-04-08T14:56:52.033Z,54.00
2018-04-08T14:59:19.689Z,54.00
2018-04-08T15:01:47.550Z,53.70
2018-04-08T15:04:15.060Z,53.60
2018-04-08T15:06:42.563Z,53.70
2018-04-08T15:09:10.202Z,53.80
2018-04-08T15:11:37.788Z,53.70
2018-04-08T15:14:05.446Z,53.50
2018-04-08T15:16:33.011Z,53.60
2018-04-08T15:19:00.539Z,53.70
2018-04-08T15:21:28.226Z,53.90
2018-04-08T15:23:55.882Z,53.60
2018-04-08T15:26:23.385Z,53.60
2018-04-08T15:28:50.903Z,53.70
2018-04-08T15:31:18.445Z,53.70
2018-04-08T15:33:45.954Z,53.70
2018-04-08T15:36:13.574Z,53.70
2018-04-08T15:38:41.087Z,53.60
2018-04-08T15:41:08.690Z,53.70
2018-04-08T15:43:36.350Z,53.90
2018-04-08T15:46:04.034Z,53.60
2018-04-08T15:48:31.970Z,53.40
2018-04-08T15:50:59.786Z,53.40
2018-04-08T15:53:27.405Z,53.70
2018-04-08T15:55:55.076Z,53.70
2018-04-08T15:58:22.616Z,53.40
2018-04-08T16:00:50.178Z,53.50
2018-04-08T16:03:17.740Z,54.20
2018-04-08T16:05:45.343Z,55.10
2018-04-08T16:08:12.962Z,55.80
2018-04-08T16:10:40.650Z,56.40
2018-04-08T16:13:08.162Z,56.90
2018-04-08T16:15:35.786Z,57.30
2018-04-08T16:18:03.449Z,57.60
2018-04-08T16:20:31.124Z,57.90
2018-04-08T16:22:58.730Z,58.10
2018-04-08T16:25:26.238Z,58.50
2018-04-08T16:27:56.718Z,58.70
2018-04-08T16:30:24.236Z,59.00
2018-04-08T16:32:51.935Z,59.30
2018-04-08T16:35:19.452Z,59.50
2018-04-08T16:37:47.121Z,59.70
2018-04-08T16:40:14.726Z,59.90
2018-04-08T16:42:42.683Z,60.10
2018-04-08T16:45:10.209Z,60.20
2018-04-08T16:47:37.823Z,60.30
2018-04-08T16:50:05.346Z,60.50
2018-04-08T16:52:32.933Z,60.60
2018-04-08T16:55:00.614Z,60.80
2018-04-08T16:57:28.712Z,60.90
2018-04-08T16:59:56.378Z,61.00
2018-04-08T17:02:23.984Z,61.20
2018-04-08T17:04:51.698Z,61.30
2018-04-08T17:07:19.516Z,61.50
2018-04-08T17:09:47.409Z,61.70
2018-04-08T17:12:15.269Z,61.70
2018-04-08T17:14:47.661Z,61.80
2018-04-08T17:17:17.114Z,61.90
2018-04-08T17:19:44.642Z,62.00
2018-04-08T17:22:12.494Z,62.20
2018-04-08T17:24:40.345Z,62.20
2018-04-08T17:27:07.967Z,62.20
2018-04-08T17:29:35.677Z,62.10
2018-04-08T17:32:03.344Z,62.20
2018-04-08T17:34:31.223Z,62.40
2018-04-08T17:36:59.036Z,62.40
2018-04-08T17:39:26.694Z,62.40
2018-04-08T17:41:54.357Z,62.50
2018-04-08T17:44:22.909Z,62.50
2018-04-08T17:46:50.495Z,62.50
2018-04-08T17:49:18.553Z,62.70
2018-04-08T17:51:46.215Z,62.70
2018-04-08T17:54:13.870Z,62.70
2018-04-08T17:56:41.382Z,62.80
2018-04-08T17:59:08.983Z,62.80
2018-04-08T18:01:36.651Z,62.80
2018-04-08T18:04:04.314Z,62.90
2018-04-08T18:06:31.969Z,62.80
2018-04-08T18:08:59.632Z,62.80
2018-04-08T18:11:27.142Z,62.80
2018-04-08T18:13:54.759Z,62.80
2018-04-08T18:16:22.407Z,62.80
2018-04-08T18:18:50.082Z,62.80
2018-04-08T18:21:17.725Z,62.80
2018-04-08T18:23:45.394Z,62.80
2018-04-08T18:26:12.906Z,62.80
2018-04-08T18:28:40.513Z,62.80
2018-04-08T18:31:08.034Z,62.80
2018-04-08T18:33:35.728Z,62.90
2018-04-08T18:36:03.295Z,62.90
2018-04-08T18:38:31.006Z,62.80
2018-04-08T18:40:58.613Z,62.80
2018-04-08T18:43:26.139Z,62.80
2018-04-08T18:45:56.595Z,62.90
2018-04-08T18:48:24.106Z,62.90
2018-04-08T18:50:51.712Z,62.90
2018-04-08T18:53:19.224Z,63.00
2018-04-08T18:55:46.827Z,62.90
2018-04-08T18:58:14.506Z,62.90
2018-04-08T19:00:42.016Z,63.00
2018-04-08T19:03:14.728Z,62.90
2018-04-08T19:05:42.401Z,62.90
2018-04-08T19:08:10.311Z,62.90
2018-04-08T19:10:37.918Z,62.90
2018-04-08T19:13:05.426Z,63.00
2018-04-08T19:15:33.038Z,62.90
2018-04-08T19:18:03.522Z,62.90
2018-04-08T19:20:31.049Z,62.90
2018-04-08T19:22:58.699Z,62.90
2018-04-08T19:25:26.338Z,62.90
2018-04-08T19:27:54.011Z,62.90
2018-04-08T19:30:21.711Z,62.90
2018-04-08T19:32:49.526Z,62.80
2018-04-08T19:35:17.185Z,62.80
2018-04-08T19:37:44.692Z,62.80
2018-04-08T19:40:12.303Z,62.80
2018-04-08T19:42:39.811Z,62.80
2018-04-08T19:45:07.440Z,62.80
2018-04-08T19:47:35.131Z,62.90
2018-04-08T19:50:02.766Z,62.80
2018-04-08T19:52:30.276Z,62.80
2018-04-08T19:54:57.878Z,62.80
2018-04-08T19:57:25.393Z,62.80
2018-04-08T19:59:52.979Z,62.80
2018-04-08T20:02:20.637Z,62.80
2018-04-08T20:04:48.149Z,62.80
2018-04-08T20:07:15.754Z,62.80
2018-04-08T20:09:43.424Z,62.80
2018-04-08T20:12:11.336Z,62.80
2018-04-08T20:14:38.938Z,62.80
2018-04-08T20:17:08.662Z,62.80
2018-04-08T20:19:36.189Z,62.80
2018-04-08T20:22:03.781Z,62.70
2018-04-08T20:24:31.534Z,62.80
2018-04-08T20:26:59.146Z,62.80
2018-04-08T20:29:26.761Z,62.80
2018-04-08T20:31:54.276Z,62.80
2018-04-08T20:34:21.871Z,62.70
2018-04-08T20:36:49.555Z,62.70
2018-04-08T20:39:24.698Z,62.70
2018-04-08T20:41:52.510Z,62.70
2018-04-08T20:44:20.095Z,62.70
2018-04-08T20:46:47.614Z,62.70
2018-04-08T20:49:15.268Z,62.80
2018-04-08T20:51:42.868Z,62.80
2018-04-08T20:54:10.537Z,62.70
2018-04-08T20:56:38.045Z,62.70
2018-04-08T20:59:05.845Z,62.70
2018-04-08T21:01:33.357Z,62.80
2018-04-08T21:04:14.050Z,62.80
2018-04-08T21:06:41.567Z,62.70
2018-04-08T21:09:09.191Z,62.80
2018-04-08T21:11:36.721Z,62.80
2018-04-08T21:14:04.512Z,62.80
2018-04-08T21:16:32.175Z,62.80
2018-04-08T21:18:59.696Z,62.80
2018-04-08T21:21:27.290Z,62.80
2018-04-08T21:23:54.976Z,62.80
2018-04-08T21:26:22.607Z,62.70
2018-04-08T21:28:50.280Z,62.80
2018-04-08T21:31:17.934Z,62.80
2018-04-08T21:34:01.970Z,62.70
2018-04-08T21:36:29.486Z,62.70
2018-04-08T21:38:57.125Z,62.70
2018-04-08T21:41:24.808Z,62.70
2018-04-08T21:43:52.470Z,62.70
2018-04-08T21:46:20.081Z,62.70
2018-04-08T21:48:47.622Z,62.70
2018-04-08T21:51:15.214Z,62.70
2018-04-08T21:53:42.857Z,62.70
2018-04-08T21:56:10.366Z,62.70
2018-04-08T21:58:37.961Z,62.70
2018-04-08T22:01:05.633Z,62.70
2018-04-08T22:03:33.299Z,62.70
2018-04-08T22:06:01.365Z,62.70
2018-04-08T22:08:29.022Z,62.70
2018-04-08T22:10:56.697Z,62.70
2018-04-08T22:13:24.205Z,62.60
2018-04-08T22:15:51.811Z,62.60
2018-04-08T22:18:19.874Z,62.60
2018-04-08T22:20:47.539Z,62.60
2018-04-08T22:23:15.046Z,62.60
2018-04-08T22:25:42.671Z,62.60
2018-04-08T22:28:10.364Z,62.60
2018-04-08T22:30:37.975Z,62.60
2018-04-08T22:33:05.648Z,62.60
2018-04-08T22:35:33.336Z,62.60
2018-04-08T22:38:00.955Z,62.60
2018-04-08T22:40:28.624Z,62.60
2018-04-08T22:42:56.335Z,62.60
2018-04-08T22:45:26.805Z,62.60
2018-04-08T22:47:54.470Z,62.50
2018-04-08T22:50:22.127Z,62.50
2018-04-08T22:52:49.654Z,62.50
2018-04-08T22:55:20.781Z,62.50
2018-04-08T22:57:48.384Z,62.50
2018-04-08T23:00:21.013Z,62.50
2018-04-08T23:02:48.631Z,62.50
2018-04-08T23:05:16.150Z,62.50
2018-04-08T23:07:43.947Z,62.50
2018-04-08T23:10:11.606Z,62.50
2018-04-08T23:12:39.119Z,62.50
2018-04-08T23:15:06.723Z,62.50
2018-04-08T23:17:34.231Z,62.50
2018-04-08T23:20:01.846Z,62.50
2018-04-08T23:22:29.503Z,62.50
2018-04-08T23:24:57.174Z,62.40
2018-04-08T23:27:24.710Z,62.40
2018-04-08T23:29:52.294Z,62.40
2018-04-08T23:32:20.196Z,62.40
2018-04-08T23:34:47.803Z,62.40
2018-04-08T23:37:15.315Z,62.40
2018-04-08T23:39:42.922Z,62.40
2018-04-08T23:42:10.438Z,62.40
2018-04-08T23:44:38.245Z,62.40
2018-04-08T23:47:05.923Z,62.40
2018-04-08T23:49:33.562Z,62.40
2018-04-08T23:52:01.283Z,62.40
2018-04-08T23:54:28.898Z,62.40
2018-04-08T23:56:56.416Z,62.40
2018-04-08T23:59:24.015Z,62.40
